createdAt,value
2018-04-15T00:00:40.411Z,9.23
2018-04-15T00:03:07.936Z,8.20
2018-04-15T00:05:36.259Z,8.47
2018-04-15T00:08:03.766Z,7.90
2018-04-15T00:10:31.264Z,8.50
2018-04-15T00:12:58.796Z,8.43
2018-04-15T00:15:27.083Z,9.80
2018-04-15T00:17:55.361Z,9.33
2018-04-15T00:20:23.622Z,9.00
2018-04-15T00:22:51.921Z,9.27
2018-04-15T00:25:19.437Z,9.37
2018-04-15T00:27:46.965Z,8.97
2018-04-15T00:30:14.481Z,9.30
2018-04-15T00:32:42.756Z,9.37
2018-04-15T00:35:10.276Z,8.70
2018-04-15T00:37:37.772Z,9.13
2018-04-15T00:40:06.054Z,8.90
2018-04-15T00:42:34.339Z,9.43
2018-04-15T00:45:01.870Z,8.77
2018-04-15T00:47:29.420Z,8.50
2018-04-15T00:49:56.917Z,8.00
2018-04-15T00:52:24.453Z,7.87
2018-04-15T00:54:52.716Z,8.43
2018-04-15T00:57:20.254Z,7.70
2018-04-15T00:59:47.773Z,7.40
2018-04-15T01:02:15.306Z,7.90
2018-04-15T01:04:42.797Z,7.80
2018-04-15T01:07:10.309Z,8.30
2018-04-15T01:09:37.802Z,7.87
2018-04-15T01:12:05.347Z,7.93
2018-04-15T01:14:32.858Z,7.90
2018-04-15T01:17:00.395Z,7.60
2018-04-15T01:19:27.903Z,7.33
2018-04-15T01:21:55.400Z,8.13
2018-04-15T01:24:22.921Z,8.00
2018-04-15T01:26:50.441Z,7.70
2018-04-15T01:29:17.973Z,7.70
2018-04-15T01:31:45.489Z,8.03
2018-04-15T01:34:13.011Z,7.50
2018-04-15T01:36:40.526Z,7.30
2018-04-15T01:39:08.825Z,7.13
2018-04-15T01:41:36.337Z,6.83
2018-04-15T01:44:03.834Z,7.50
2018-04-15T01:46:32.137Z,7.40
2018-04-15T01:48:59.656Z,7.27
2018-04-15T01:51:27.191Z,7.90
2018-04-15T01:53:54.680Z,8.10
2018-04-15T01:56:22.958Z,8.00
2018-04-15T01:58:51.206Z,8.00
2018-04-15T02:01:18.737Z,7.87
2018-04-15T02:03:46.246Z,7.97
2018-04-15T02:06:14.577Z,7.67
2018-04-15T02:08:42.079Z,7.83
2018-04-15T02:11:10.382Z,7.33
2018-04-15T02:13:37.925Z,7.20
2018-04-15T02:16:06.211Z,6.77
2018-04-15T02:18:33.749Z,7.20
2018-04-15T02:21:01.256Z,8.10
2018-04-15T02:23:28.778Z,7.50
2018-04-15T02:25:57.057Z,7.87
2018-04-15T02:28:24.567Z,7.83
2018-04-15T02:30:52.084Z,8.50
2018-04-15T02:33:19.607Z,8.17
2018-04-15T02:35:47.119Z,7.73
2018-04-15T02:38:14.635Z,8.20
2018-04-15T02:40:42.938Z,8.60
2018-04-15T02:43:10.459Z,8.50
2018-04-15T02:45:37.994Z,9.93
2018-04-15T02:48:05.552Z,10.80
2018-04-15T02:50:33.078Z,11.17
2018-04-15T02:53:00.600Z,11.73
2018-04-15T02:55:28.917Z,10.80
2018-04-15T02:57:56.433Z,10.10
2018-04-15T03:00:23.952Z,10.50
2018-04-15T03:02:51.495Z,10.40
2018-04-15T03:05:19.016Z,10.30
2018-04-15T03:07:46.568Z,10.03
2018-04-15T03:10:14.065Z,9.03
2018-04-15T03:12:41.617Z,8.90
2018-04-15T03:15:09.120Z,9.50
2018-04-15T03:17:36.620Z,10.40
2018-04-15T03:20:04.950Z,10.33
2018-04-15T03:22:32.489Z,10.70
2018-04-15T03:25:00.033Z,10.10
2018-04-15T03:27:27.543Z,9.83
2018-04-15T03:29:55.076Z,10.90
2018-04-15T03:32:22.616Z,10.50
2018-04-15T03:34:50.117Z,10.07
2018-04-15T03:37:17.634Z,10.40
2018-04-15T03:39:45.149Z,10.87
2018-04-15T03:42:13.458Z,10.63
2018-04-15T03:44:40.987Z,10.90
2018-04-15T03:47:08.546Z,11.00
2018-04-15T03:49:36.114Z,11.20
2018-04-15T03:52:04.385Z,9.93
2018-04-15T03:54:32.685Z,9.87
2018-04-15T03:57:00.229Z,10.17
2018-04-15T03:59:28.525Z,9.10
2018-04-15T04:01:56.038Z,9.10
2018-04-15T04:04:23.602Z,9.30
2018-04-15T04:06:51.117Z,8.63
2018-04-15T04:09:18.645Z,8.50
2018-04-15T04:11:46.959Z,7.80
2018-04-15T04:14:14.481Z,7.33
2018-04-15T04:16:42.760Z,8.10
2018-04-15T04:19:23.014Z,7.00
2018-04-15T04:22:03.177Z,6.40
2018-04-15T04:24:42.681Z,7.00
2018-04-15T04:27:11.804Z,6.43
2018-04-15T04:29:40.125Z,7.20
2018-04-15T04:32:07.613Z,7.43
2018-04-15T04:34:35.137Z,7.23
2018-04-15T04:37:02.658Z,7.30
2018-04-15T04:39:30.195Z,7.43
2018-04-15T04:41:57.726Z,6.93
2018-04-15T04:44:25.226Z,7.70
2018-04-15T04:46:53.525Z,6.93
2018-04-15T04:49:21.026Z,7.57
2018-04-15T04:51:48.602Z,6.60
2018-04-15T04:54:16.107Z,6.70
2018-04-15T04:56:43.625Z,6.57
2018-04-15T04:59:11.140Z,6.63
2018-04-15T05:01:38.669Z,6.60
2018-04-15T05:04:06.196Z,6.87
2018-04-15T05:06:33.717Z,6.20
2018-04-15T05:09:01.229Z,6.80
2018-04-15T05:11:28.713Z,6.33
2018-04-15T05:13:56.256Z,6.70
2018-04-15T05:16:23.767Z,6.80
2018-04-15T05:18:51.274Z,6.50
2018-04-15T05:21:18.807Z,6.10
2018-04-15T05:23:46.295Z,6.17
2018-04-15T05:26:13.836Z,7.13
2018-04-15T05:28:41.341Z,6.73
2018-04-15T05:31:08.883Z,7.07
2018-04-15T05:33:36.376Z,6.77
2018-04-15T05:36:03.894Z,7.10
2018-04-15T05:38:31.475Z,7.13
2018-04-15T05:40:59.055Z,7.10
2018-04-15T05:43:26.596Z,7.00
2018-04-15T05:45:54.123Z,6.87
2018-04-15T05:48:21.650Z,6.67
2018-04-15T05:50:49.201Z,7.10
2018-04-15T05:53:16.729Z,7.23
2018-04-15T05:55:44.283Z,7.30
2018-04-15T05:58:11.833Z,7.80
2018-04-15T06:00:39.393Z,7.13
2018-04-15T06:03:06.929Z,8.50
2018-04-15T06:05:34.433Z,7.67
2018-04-15T06:08:01.965Z,7.67
2018-04-15T06:10:29.476Z,7.20
2018-04-15T06:12:57.010Z,7.10
2018-04-15T06:15:24.587Z,6.60
2018-04-15T06:17:52.088Z,6.23
2018-04-15T06:20:20.348Z,6.63
2018-04-15T06:22:48.673Z,5.60
2018-04-15T06:25:16.172Z,6.07
2018-04-15T06:27:43.725Z,5.53
2018-04-15T06:30:11.231Z,5.60
2018-04-15T06:32:38.789Z,5.20
2018-04-15T06:35:06.332Z,5.23
2018-04-15T06:37:34.605Z,4.80
2018-04-15T06:40:02.929Z,4.93
2018-04-15T06:42:31.192Z,4.40
2018-04-15T06:44:58.731Z,4.77
2018-04-15T06:47:26.236Z,4.20
2018-04-15T06:49:53.764Z,3.77
2018-04-15T06:52:21.269Z,3.63
2018-04-15T06:54:48.810Z,3.67
2018-04-15T06:57:16.341Z,3.60
2018-04-15T06:59:43.864Z,3.70
2018-04-15T07:02:12.178Z,3.77
2018-04-15T07:04:39.746Z,3.60
2018-04-15T07:07:07.261Z,3.50
2018-04-15T07:09:35.619Z,3.53
2018-04-15T07:12:03.109Z,3.50
2018-04-15T07:14:30.661Z,3.70
2018-04-15T07:16:58.181Z,2.77
2018-04-15T07:19:25.773Z,3.37
2018-04-15T07:21:54.042Z,3.70
2018-04-15T07:24:22.375Z,3.03
2018-04-15T07:26:49.923Z,3.47
2018-04-15T07:29:17.453Z,3.43
2018-04-15T07:31:45.768Z,3.50
2018-04-15T07:34:13.318Z,3.50
2018-04-15T07:36:40.824Z,3.20
2018-04-15T07:39:08.356Z,3.17
2018-04-15T07:41:35.905Z,4.40
2018-04-15T07:44:03.407Z,4.80
2018-04-15T07:46:31.720Z,4.77
2018-04-15T07:48:59.241Z,8.67
2018-04-15T07:51:26.762Z,9.70
2018-04-15T07:53:54.329Z,9.07
2018-04-15T07:56:21.918Z,9.87
2018-04-15T07:58:49.443Z,8.00
2018-04-15T08:01:17.756Z,7.50
2018-04-15T08:03:45.249Z,6.87
2018-04-15T08:06:12.777Z,5.43
2018-04-15T08:08:40.317Z,4.73
2018-04-15T08:11:07.838Z,4.10
2018-04-15T08:13:35.357Z,3.70
2018-04-15T08:16:03.656Z,3.87
2018-04-15T08:18:31.236Z,4.37
2018-04-15T08:20:58.751Z,3.67
2018-04-15T08:23:27.043Z,3.73
2018-04-15T08:25:54.587Z,3.33
2018-04-15T08:28:22.877Z,3.10
2018-04-15T08:30:51.190Z,2.60
2018-04-15T08:33:18.707Z,3.50
2018-04-15T08:35:47.033Z,2.70
2018-04-15T08:38:14.541Z,2.83
2018-04-15T08:40:42.846Z,2.63
2018-04-15T08:43:10.348Z,2.53
2018-04-15T08:45:37.863Z,3.00
2018-04-15T08:48:05.395Z,2.80
2018-04-15T08:50:33.665Z,3.10
2018-04-15T08:53:01.962Z,3.10
2018-04-15T08:55:29.481Z,3.53
2018-04-15T08:57:57.048Z,3.07
2018-04-15T09:00:24.556Z,3.27
2018-04-15T09:02:52.130Z,3.07
2018-04-15T09:05:19.632Z,3.10
2018-04-15T09:07:47.138Z,3.33
2018-04-15T09:10:14.670Z,3.00
2018-04-15T09:12:42.198Z,3.00
2018-04-15T09:15:09.739Z,3.33
2018-04-15T09:17:37.259Z,3.00
2018-04-15T09:20:04.835Z,3.50
2018-04-15T09:22:32.385Z,2.77
2018-04-15T09:24:59.944Z,3.57
2018-04-15T09:27:27.443Z,2.83
2018-04-15T09:29:54.990Z,3.33
2018-04-15T09:32:22.567Z,3.80
2018-04-15T09:34:50.121Z,3.43
2018-04-15T09:37:17.638Z,3.70
2018-04-15T09:39:45.169Z,4.47
2018-04-15T09:42:13.438Z,3.50
2018-04-15T09:44:41.720Z,3.90
2018-04-15T09:47:10.011Z,3.90
2018-04-15T09:49:37.546Z,4.10
2018-04-15T09:52:05.826Z,4.30
2018-04-15T09:54:34.121Z,4.30
2018-04-15T09:57:01.635Z,4.33
2018-04-15T09:59:29.202Z,4.50
2018-04-15T10:01:56.708Z,4.70
2018-04-15T10:04:24.229Z,4.33
2018-04-15T10:06:51.794Z,4.33
2018-04-15T10:09:20.099Z,4.50
2018-04-15T10:11:47.613Z,5.10
2018-04-15T10:14:15.924Z,5.83
2018-04-15T10:16:44.190Z,6.03
2018-04-15T10:19:12.487Z,5.70
2018-04-15T10:21:40.006Z,6.60
2018-04-15T10:24:08.322Z,6.80
2018-04-15T10:26:35.831Z,7.27
2018-04-15T10:29:03.377Z,6.57
2018-04-15T10:31:30.917Z,4.57
2018-04-15T10:33:58.455Z,4.90
2018-04-15T10:36:26.017Z,4.27
2018-04-15T10:38:53.510Z,5.60
2018-04-15T10:41:21.036Z,5.30
2018-04-15T10:43:48.573Z,4.77
2018-04-15T10:46:16.837Z,4.03
2018-04-15T10:48:44.381Z,4.40
2018-04-15T10:51:11.889Z,5.67
2018-04-15T10:53:39.431Z,4.97
2018-04-15T10:56:07.717Z,4.70
2018-04-15T10:58:35.230Z,5.30
2018-04-15T11:01:02.751Z,4.53
2018-04-15T11:03:30.288Z,4.40
2018-04-15T11:05:57.844Z,4.93
2018-04-15T11:08:26.149Z,4.37
2018-04-15T11:10:53.683Z,5.80
2018-04-15T11:13:21.215Z,5.57
2018-04-15T11:15:48.772Z,5.07
2018-04-15T11:18:16.267Z,6.10
2018-04-15T11:20:43.813Z,4.90
2018-04-15T11:23:12.115Z,4.33
2018-04-15T11:25:39.618Z,4.67
2018-04-15T11:28:07.142Z,4.93
2018-04-15T11:30:34.693Z,4.83
2018-04-15T11:33:02.193Z,3.73
2018-04-15T11:35:29.727Z,3.43
2018-04-15T11:37:57.234Z,3.40
2018-04-15T11:40:25.594Z,3.73
2018-04-15T11:42:53.153Z,3.70
2018-04-15T11:45:20.674Z,4.27
2018-04-15T11:47:48.223Z,3.33
2018-04-15T11:50:15.729Z,4.00
2018-04-15T11:52:43.283Z,4.60
2018-04-15T11:55:10.856Z,3.23
2018-04-15T11:57:38.405Z,3.80
2018-04-15T12:00:05.910Z,4.87
2018-04-15T12:02:33.466Z,4.20
2018-04-15T12:05:01.032Z,3.47
2018-04-15T12:07:28.534Z,3.50
2018-04-15T12:09:56.060Z,4.10
2018-04-15T12:12:23.577Z,5.10
2018-04-15T12:14:51.117Z,5.10
2018-04-15T12:17:18.740Z,4.83
2018-04-15T12:19:46.994Z,5.20
2018-04-15T12:22:14.520Z,4.87
2018-04-15T12:24:42.073Z,5.33
2018-04-15T12:27:09.605Z,5.03
2018-04-15T12:29:37.125Z,5.17
2018-04-15T12:32:05.415Z,4.37
2018-04-15T12:34:32.941Z,4.10
2018-04-15T12:37:01.215Z,3.90
2018-04-15T12:39:29.545Z,4.80
2018-04-15T12:41:57.057Z,4.13
2018-04-15T12:44:25.347Z,3.70
2018-04-15T12:46:52.864Z,3.33
2018-04-15T12:49:20.424Z,4.30
2018-04-15T12:51:47.953Z,3.40
2018-04-15T12:54:15.505Z,3.23
2018-04-15T12:56:43.035Z,2.90
2018-04-15T12:59:11.321Z,4.73
2018-04-15T13:01:38.885Z,3.40
2018-04-15T13:04:06.419Z,2.83
2018-04-15T13:06:34.703Z,2.93
2018-04-15T13:09:02.998Z,2.60
2018-04-15T13:11:30.544Z,4.23
2018-04-15T13:13:58.807Z,3.80
2018-04-15T13:16:27.096Z,3.30
2018-04-15T13:18:55.393Z,3.20
2018-04-15T13:21:22.926Z,4.90
2018-04-15T13:23:51.322Z,4.40
2018-04-15T13:26:18.907Z,5.30
2018-04-15T13:28:46.416Z,4.50
2018-04-15T13:31:14.712Z,4.20
2018-04-15T13:33:43.022Z,4.27
2018-04-15T13:36:10.539Z,4.30
2018-04-15T13:38:38.815Z,3.30
2018-04-15T13:41:07.102Z,3.63
2018-04-15T13:43:34.690Z,3.43
2018-04-15T13:46:02.230Z,3.10
2018-04-15T13:48:29.757Z,2.73
2018-04-15T13:50:57.310Z,3.57
2018-04-15T13:53:24.823Z,4.43
2018-04-15T13:55:52.398Z,4.00
2018-04-15T13:58:19.946Z,3.83
2018-04-15T14:00:47.475Z,3.60
2018-04-15T14:03:15.002Z,3.03
2018-04-15T14:05:42.538Z,3.30
2018-04-15T14:08:10.067Z,4.00
2018-04-15T14:10:37.606Z,3.10
2018-04-15T14:13:05.969Z,3.50
2018-04-15T14:15:34.254Z,3.47
2018-04-15T14:18:02.553Z,3.30
2018-04-15T14:20:30.082Z,3.30
2018-04-15T14:22:58.368Z,3.60
2018-04-15T14:25:26.685Z,3.90
2018-04-15T14:27:54.249Z,3.33
2018-04-15T14:30:21.754Z,3.60
2018-04-15T14:32:50.024Z,3.60
2018-04-15T14:35:17.574Z,3.10
2018-04-15T14:37:45.101Z,3.50
2018-04-15T14:40:12.603Z,3.17
2018-04-15T14:42:40.915Z,2.80
2018-04-15T14:45:08.431Z,2.90
2018-04-15T14:47:35.966Z,3.10
2018-04-15T14:50:03.483Z,3.27
2018-04-15T14:52:31.020Z,2.90
2018-04-15T14:54:59.348Z,2.97
2018-04-15T14:57:26.884Z,2.57
2018-04-15T14:59:54.389Z,3.23
2018-04-15T15:02:21.918Z,3.30
2018-04-15T15:04:49.447Z,3.30
2018-04-15T15:07:16.969Z,3.33
2018-04-15T15:09:44.559Z,3.47
2018-04-15T15:12:12.827Z,2.43
2018-04-15T15:14:41.134Z,3.30
2018-04-15T15:17:08.678Z,2.63
2018-04-15T15:19:37.054Z,2.73
2018-04-15T15:22:04.526Z,2.80
2018-04-15T15:24:32.080Z,2.70
2018-04-15T15:26:59.601Z,2.90
2018-04-15T15:29:27.141Z,3.27
2018-04-15T15:31:54.670Z,2.80
2018-04-15T15:34:22.946Z,2.67
2018-04-15T15:36:50.501Z,2.67
2018-04-15T15:39:18.000Z,2.43
2018-04-15T15:41:45.573Z,2.47
2018-04-15T15:44:13.083Z,2.63
2018-04-15T15:46:40.624Z,3.37
2018-04-15T15:49:08.174Z,2.80
2018-04-15T15:51:35.728Z,3.13
2018-04-15T15:54:04.012Z,2.70
2018-04-15T15:59:24.133Z,2.23
2018-04-15T16:01:51.697Z,2.50
2018-04-15T16:04:19.290Z,2.80
2018-04-15T16:06:46.930Z,2.43
2018-04-15T16:09:14.483Z,2.40
2018-04-15T16:11:41.998Z,2.97
2018-04-15T16:14:09.660Z,2.43
2018-04-15T16:16:37.984Z,2.50
2018-04-15T16:19:05.498Z,2.23
2018-04-15T16:21:33.053Z,2.50
2018-04-15T16:24:00.905Z,2.30
2018-04-15T16:26:28.444Z,2.50
2018-04-15T16:28:55.989Z,2.73
2018-04-15T16:31:23.550Z,2.40
2018-04-15T16:33:51.100Z,2.40
2018-04-15T16:36:18.718Z,2.90
2018-04-15T16:38:46.260Z,2.87
2018-04-15T16:41:13.880Z,2.17
2018-04-15T16:43:41.564Z,2.70
2018-04-15T16:46:09.792Z,2.67
2018-04-15T16:48:38.151Z,2.50
2018-04-15T16:51:05.730Z,2.40
2018-04-15T16:53:33.993Z,2.70
2018-04-15T16:56:01.783Z,2.30
2018-04-15T16:58:29.466Z,2.20
2018-04-15T17:00:56.999Z,2.27
2018-04-15T17:03:24.536Z,2.40
2018-04-15T17:05:52.826Z,2.60
2018-04-15T17:08:21.131Z,2.73
2018-04-15T17:10:48.796Z,2.90
2018-04-15T17:13:16.310Z,2.80
2018-04-15T17:15:44.582Z,3.03
2018-04-15T17:18:12.135Z,2.70
2018-04-15T17:20:40.017Z,2.80
2018-04-15T17:23:07.548Z,2.70
2018-04-15T17:25:35.161Z,2.97
2018-04-15T17:28:02.854Z,3.47
2018-04-15T17:30:30.681Z,3.17
2018-04-15T17:32:58.400Z,3.33
2018-04-15T17:35:26.753Z,3.20
2018-04-15T17:37:55.437Z,2.50
2018-04-15T17:40:23.189Z,3.47
2018-04-15T17:42:50.721Z,2.70
2018-04-15T17:45:19.023Z,2.80
2018-04-15T17:47:46.544Z,3.20
2018-04-15T17:50:15.058Z,2.77
2018-04-15T17:52:42.677Z,3.10
2018-04-15T17:55:10.277Z,2.87
2018-04-15T17:57:37.846Z,2.47
2018-04-15T18:00:05.356Z,2.80
2018-04-15T18:02:32.900Z,2.60
2018-04-15T18:05:00.436Z,2.60
2018-04-15T18:07:28.045Z,3.00
2018-04-15T18:09:56.344Z,2.97
2018-04-15T18:12:24.622Z,2.80
2018-04-15T18:14:52.112Z,2.77
2018-04-15T18:17:19.637Z,2.70
2018-04-15T18:19:47.178Z,5.40
2018-04-15T18:22:15.506Z,5.10
2018-04-15T18:24:43.042Z,4.20
2018-04-15T18:27:10.541Z,2.97
2018-04-15T18:29:38.087Z,3.30
2018-04-15T18:32:05.596Z,2.60
2018-04-15T18:34:33.887Z,2.60
2018-04-15T18:37:01.424Z,3.60
2018-04-15T18:39:28.960Z,3.70
2018-04-15T18:41:56.520Z,3.20
2018-04-15T18:44:24.040Z,3.30
2018-04-15T18:46:51.569Z,3.40
2018-04-15T18:49:19.873Z,3.20
2018-04-15T18:51:47.451Z,3.20
2018-04-15T18:54:14.965Z,3.40
2018-04-15T18:56:43.267Z,3.63
2018-04-15T18:59:10.819Z,3.50
2018-04-15T19:01:38.335Z,3.60
2018-04-15T19:04:05.865Z,3.43
2018-04-15T19:06:33.417Z,3.80
2018-04-15T19:09:00.922Z,3.37
2018-04-15T19:11:28.445Z,4.00
2018-04-15T19:13:55.953Z,5.23
2018-04-15T19:16:24.262Z,5.60
2018-04-15T19:18:51.829Z,7.90
2018-04-15T19:21:19.854Z,4.60
2018-04-15T19:23:47.435Z,4.07
2018-04-15T19:26:14.987Z,4.20
2018-04-15T19:28:42.483Z,4.20
2018-04-15T19:31:10.596Z,4.30
2018-04-15T19:33:38.158Z,4.50
2018-04-15T19:36:05.732Z,4.53
2018-04-15T19:38:34.014Z,4.70
2018-04-15T19:41:01.642Z,5.67
2018-04-15T19:43:29.710Z,4.80
2018-04-15T19:45:58.376Z,5.67
2018-04-15T19:48:26.933Z,5.63
2018-04-15T19:50:54.473Z,5.40
2018-04-15T19:53:22.759Z,10.10
2018-04-15T19:55:50.298Z,5.73
2018-04-15T19:58:18.594Z,5.90
2018-04-15T20:00:46.173Z,9.90
2018-04-15T20:03:13.741Z,6.20
2018-04-15T20:05:41.259Z,5.33
2018-04-15T20:08:09.848Z,4.70
2018-04-15T20:10:37.480Z,4.87
2018-04-15T20:13:05.077Z,4.80
2018-04-15T20:15:32.586Z,4.90
2018-04-15T20:18:00.231Z,4.60
2018-04-15T20:20:27.795Z,4.90
2018-04-15T20:22:55.310Z,4.43
2018-04-15T20:25:22.830Z,4.30
2018-04-15T20:27:50.568Z,3.73
2018-04-15T20:30:18.142Z,3.73
2018-04-15T20:32:45.657Z,4.10
2018-04-15T20:35:13.594Z,3.60
2018-04-15T20:37:42.583Z,3.50
2018-04-15T20:40:10.414Z,3.67
2018-04-15T20:42:38.754Z,4.30
2018-04-15T20:45:07.056Z,3.07
2018-04-15T20:47:34.659Z,3.43
2018-04-15T20:50:02.716Z,3.30
2018-04-15T20:52:31.461Z,3.60
2018-04-15T20:54:59.072Z,3.53
2018-04-15T20:57:26.597Z,3.53
2018-04-15T20:59:54.156Z,3.33
2018-04-15T21:02:22.467Z,3.83
2018-04-15T21:04:50.146Z,3.30
2018-04-15T21:07:17.745Z,3.50
2018-04-15T21:09:45.269Z,3.73
2018-04-15T21:12:13.595Z,4.00
2018-04-15T21:14:41.138Z,3.70
2018-04-15T21:17:08.647Z,3.90
2018-04-15T21:19:36.230Z,3.87
2018-04-15T21:22:04.512Z,4.20
2018-04-15T21:24:32.050Z,4.40
2018-04-15T21:26:59.569Z,3.93
2018-04-15T21:29:27.120Z,4.67
2018-04-15T21:31:54.687Z,4.33
2018-04-15T21:34:22.229Z,4.30
2018-04-15T21:36:49.796Z,5.20
2018-04-15T21:39:17.327Z,5.10
2018-04-15T21:41:44.828Z,4.47
2018-04-15T21:44:12.353Z,4.87
2018-04-15T21:46:39.837Z,5.00
2018-04-15T21:49:07.355Z,4.80
2018-04-15T21:51:35.635Z,5.40
2018-04-15T21:54:03.910Z,4.87
2018-04-15T21:56:32.197Z,4.50
2018-04-15T21:58:59.729Z,5.00
2018-04-15T22:01:27.249Z,4.90
2018-04-15T22:03:54.765Z,4.70
2018-04-15T22:06:23.034Z,4.30
2018-04-15T22:08:51.383Z,4.43
2018-04-15T22:11:18.890Z,4.20
2018-04-15T22:13:46.419Z,4.53
2018-04-15T22:16:14.708Z,4.70
2018-04-15T22:18:43.012Z,4.80
2018-04-15T22:21:10.518Z,4.83
2018-04-15T22:23:38.042Z,5.30
2018-04-15T22:26:05.585Z,4.83
2018-04-15T22:28:33.821Z,4.73
2018-04-15T22:31:01.343Z,5.27
2018-04-15T22:33:28.929Z,5.37
2018-04-15T22:35:56.445Z,5.30
2018-04-15T22:38:23.968Z,5.40
2018-04-15T22:40:52.258Z,5.40
2018-04-15T22:43:19.763Z,5.53
2018-04-15T22:45:47.289Z,5.40
2018-04-15T22:48:14.797Z,5.80
2018-04-15T22:50:42.292Z,5.90
2018-04-15T22:53:09.818Z,5.80
2018-04-15T22:55:38.110Z,6.03
2018-04-15T22:58:06.413Z,5.03
2018-04-15T23:00:33.937Z,5.63
2018-04-15T23:03:01.427Z,6.30
2018-04-15T23:05:28.968Z,5.90
2018-04-15T23:07:57.280Z,5.80
2018-04-15T23:10:24.789Z,6.07
2018-04-15T23:12:52.326Z,6.00
2018-04-15T23:15:19.824Z,6.13
2018-04-15T23:17:48.089Z,6.43
2018-04-15T23:20:15.618Z,6.20
2018-04-15T23:22:43.117Z,6.17
2018-04-15T23:25:11.402Z,5.70
2018-04-15T23:27:39.656Z,6.00
2018-04-15T23:30:07.957Z,5.93
2018-04-15T23:32:35.482Z,6.20
2018-04-15T23:35:03.020Z,6.10
2018-04-15T23:37:30.531Z,6.60
2018-04-15T23:39:58.053Z,6.23
2018-04-15T23:42:25.572Z,6.13
2018-04-15T23:44:53.093Z,6.50
2018-04-15T23:47:21.370Z,7.00
2018-04-15T23:49:49.653Z,6.33
2018-04-15T23:52:17.954Z,6.70
2018-04-15T23:54:45.442Z,6.70
2018-04-15T23:57:12.977Z,7.47
2018-04-15T23:59:40.527Z,6.90
